createdAt,value
2022-12-18T00:01:34.398Z,-6.39
2022-12-18T00:04:05.164Z,-6.05
2022-12-18T00:06:33.748Z,-5.89
2022-12-18T00:09:03.324Z,-6.21
2022-12-18T00:11:32.037Z,-6.57
2022-12-18T00:14:00.880Z,-6.73
2022-12-18T00:16:31.062Z,-6.85
2022-12-18T00:19:01.277Z,-6.62
2022-12-18T00:21:30.832Z,-6.42
2022-12-18T00:23:59.515Z,-7.12
2022-12-18T00:26:33.604Z,-6.78
2022-12-18T00:29:05.693Z,-6.86
2022-12-18T00:31:34.380Z,-6.70
2022-12-18T00:34:02.297Z,-6.36
2022-12-18T00:36:34.168Z,-6.48
2022-12-18T00:39:04.966Z,-6.51
2022-12-18T00:41:51.311Z,-6.39
2022-12-18T00:44:19.709Z,-6.48
2022-12-18T00:46:49.032Z,-6.56
2022-12-18T00:49:19.751Z,-6.27
2022-12-18T00:51:47.989Z,-6.29
2022-12-18T00:54:16.524Z,-6.48
2022-12-18T00:56:50.687Z,-6.46
2022-12-18T00:59:19.307Z,-6.67
2022-12-18T01:01:47.532Z,-7.21
2022-12-18T01:04:15.824Z,-7.28
2022-12-18T01:06:42.973Z,-7.55
2022-12-18T01:09:10.121Z,-7.50
2022-12-18T01:11:37.437Z,-6.70
2022-12-18T01:14:04.799Z,-6.92
2022-12-18T01:16:32.062Z,-7.72
2022-12-18T01:18:59.572Z,-7.48
2022-12-18T01:21:26.808Z,-7.10
2022-12-18T01:23:56.711Z,-6.56
2022-12-18T01:26:26.393Z,-7.07
2022-12-18T01:28:55.430Z,-6.90
2022-12-18T01:31:24.417Z,-7.29
2022-12-18T01:33:53.330Z,-7.13
2022-12-18T01:36:33.891Z,-7.16
2022-12-18T01:39:07.528Z,-7.55
2022-12-18T01:41:54.508Z,-7.38
2022-12-18T01:44:58.842Z,-7.09
2022-12-18T01:47:34.782Z,-6.99
2022-12-18T01:50:17.717Z,-6.79
2022-12-18T01:52:49.705Z,-6.95
2022-12-18T01:55:23.508Z,-7.14
2022-12-18T01:57:55.962Z,-7.24
2022-12-18T02:00:25.556Z,-7.07
2022-12-18T02:02:53.971Z,-7.55
2022-12-18T02:05:50.659Z,-7.81
2022-12-18T02:09:19.651Z,-7.35
2022-12-18T02:12:07.913Z,-8.08
2022-12-18T02:14:55.484Z,-7.65
2022-12-18T02:17:34.419Z,-7.87
2022-12-18T02:20:37.303Z,-7.55
2022-12-18T02:23:43.308Z,-7.60
2022-12-18T02:26:38.979Z,-7.30
2022-12-18T02:29:28.908Z,-6.88
2022-12-18T02:32:00.922Z,-7.12
2022-12-18T02:34:33.808Z,-7.35
2022-12-18T02:37:07.330Z,-6.95
2022-12-18T02:39:37.464Z,-6.94
2022-12-18T02:42:08.800Z,-6.59
2022-12-18T02:44:45.410Z,-6.78
2022-12-18T02:47:15.757Z,-7.46
2022-12-18T02:49:59.689Z,-7.41
2022-12-18T02:52:27.066Z,-7.15
2022-12-18T02:55:29.329Z,-7.24
2022-12-18T02:58:04.238Z,-7.56
2022-12-18T03:00:41.758Z,-7.16
2022-12-18T03:03:33.614Z,-7.61
2022-12-18T03:06:41.113Z,-7.50
2022-12-18T03:09:18.602Z,-7.69
2022-12-18T03:12:14.286Z,-7.15
2022-12-18T03:14:46.101Z,-7.39
2022-12-18T03:17:19.665Z,-7.31
2022-12-18T03:19:49.389Z,-7.30
2022-12-18T03:22:17.869Z,-7.41
2022-12-18T03:24:49.368Z,-7.44
2022-12-18T03:27:23.313Z,-7.77
2022-12-18T03:30:08.180Z,-7.92
2022-12-18T03:33:06.855Z,-7.87
2022-12-18T03:35:40.780Z,-7.48
2022-12-18T03:38:09.336Z,-7.45
2022-12-18T03:40:57.099Z,-7.67
2022-12-18T03:44:14.818Z,-7.85
2022-12-18T03:47:03.151Z,-8.03
2022-12-18T03:49:57.422Z,-7.97
2022-12-18T03:52:34.277Z,-8.72
2022-12-18T03:55:04.667Z,-8.72
2022-12-18T03:57:33.885Z,-8.75
2022-12-18T04:00:10.677Z,-8.94
2022-12-18T04:02:45.666Z,-8.81
2022-12-18T04:05:15.996Z,-8.76
2022-12-18T04:07:45.902Z,-8.67
2022-12-18T04:10:15.386Z,-8.98
2022-12-18T04:12:43.051Z,-9.14
2022-12-18T04:15:12.725Z,-9.16
2022-12-18T04:17:50.539Z,-8.85
2022-12-18T04:20:18.648Z,-8.87
2022-12-18T04:22:46.491Z,-8.64
2022-12-18T04:25:14.379Z,-8.14
2022-12-18T04:27:41.587Z,-8.73
2022-12-18T04:30:09.604Z,-9.15
2022-12-18T04:32:37.166Z,-9.16
2022-12-18T04:35:07.411Z,-9.27
2022-12-18T04:37:34.610Z,-8.92
2022-12-18T04:40:01.806Z,-9.31
2022-12-18T04:42:28.983Z,-9.30
2022-12-18T04:44:56.188Z,-9.38
2022-12-18T04:47:23.339Z,-9.38
2022-12-18T04:49:50.523Z,-9.44
2022-12-18T04:52:17.684Z,-9.70
2022-12-18T04:54:44.878Z,-9.26
2022-12-18T04:57:12.081Z,-9.35
2022-12-18T04:59:39.313Z,-9.14
2022-12-18T05:02:07.005Z,-8.86
2022-12-18T05:04:34.258Z,-9.06
2022-12-18T05:07:01.483Z,-8.91
2022-12-18T05:09:28.705Z,-8.62
2022-12-18T05:11:55.917Z,-8.86
2022-12-18T05:14:23.072Z,-8.91
2022-12-18T05:16:50.363Z,-9.11
2022-12-18T05:19:17.542Z,-8.72
2022-12-18T05:21:44.765Z,-8.60
2022-12-18T05:24:13.133Z,-8.86
2022-12-18T05:26:40.457Z,-9.19
2022-12-18T05:29:08.773Z,-8.86
2022-12-18T05:31:39.710Z,-8.33
2022-12-18T05:34:07.243Z,-8.36
2022-12-18T05:36:34.410Z,-8.69
2022-12-18T05:39:01.596Z,-8.62
2022-12-18T05:41:29.618Z,-8.57
2022-12-18T05:43:56.833Z,-8.77
2022-12-18T05:46:25.185Z,-8.58
2022-12-18T05:48:52.796Z,-9.09
2022-12-18T05:51:22.864Z,-8.25
2022-12-18T05:53:50.107Z,-9.18
2022-12-18T05:56:22.480Z,-9.19
2022-12-18T05:58:53.956Z,-9.44
2022-12-18T06:01:25.890Z,-8.37
2022-12-18T06:03:53.548Z,-8.48
2022-12-18T06:06:24.927Z,-8.42
2022-12-18T06:08:53.352Z,-8.37
2022-12-18T06:11:24.557Z,-8.38
2022-12-18T06:13:58.742Z,-8.22
2022-12-18T06:16:28.804Z,-8.34
2022-12-18T06:19:00.998Z,-8.38
2022-12-18T06:21:29.472Z,-8.61
2022-12-18T06:23:57.060Z,-8.42
2022-12-18T06:26:28.332Z,-8.55
2022-12-18T06:28:56.142Z,-8.87
2022-12-18T06:31:23.386Z,-8.94
2022-12-18T06:33:50.785Z,-8.63
2022-12-18T06:36:18.564Z,-8.73
2022-12-18T06:38:45.823Z,-9.11
2022-12-18T06:41:20.274Z,-9.36
2022-12-18T06:43:47.889Z,-9.01
2022-12-18T06:46:15.706Z,-9.33
2022-12-18T06:48:43.218Z,-9.45
2022-12-18T06:51:10.344Z,-9.45
2022-12-18T06:53:37.948Z,-9.81
2022-12-18T06:56:10.739Z,-9.44
2022-12-18T06:58:39.924Z,-9.50
2022-12-18T07:01:11.169Z,-9.51
2022-12-18T07:03:41.499Z,-9.66
2022-12-18T07:06:18.288Z,-9.29
2022-12-18T07:08:47.456Z,-9.37
2022-12-18T07:11:15.626Z,-9.50
2022-12-18T07:13:43.950Z,-9.77
2022-12-18T07:16:20.804Z,-9.40
2022-12-18T07:18:51.595Z,-9.39
2022-12-18T07:21:22.904Z,-9.60
2022-12-18T07:23:50.317Z,-9.51
2022-12-18T07:26:21.016Z,-9.22
2022-12-18T07:28:49.386Z,-8.87
2022-12-18T07:31:22.254Z,-9.02
2022-12-18T07:33:52.220Z,-9.26
2022-12-18T07:36:23.615Z,-9.63
2022-12-18T07:38:52.522Z,-9.68
2022-12-18T07:41:20.418Z,-9.73
2022-12-18T07:43:48.099Z,-9.59
2022-12-18T07:46:17.338Z,-9.40
2022-12-18T07:48:49.389Z,-9.59
2022-12-18T07:51:18.971Z,-9.49
2022-12-18T07:53:46.775Z,-9.29
2022-12-18T07:56:27.252Z,-9.39
2022-12-18T07:58:56.743Z,-9.20
2022-12-18T08:01:24.371Z,-9.42
2022-12-18T08:03:52.501Z,-9.38
2022-12-18T08:06:22.590Z,-9.55
2022-12-18T08:08:56.728Z,-9.45
2022-12-18T08:11:26.841Z,-9.51
2022-12-18T08:13:54.656Z,-9.37
2022-12-18T08:16:23.254Z,-9.15
2022-12-18T08:18:52.539Z,-9.07
2022-12-18T08:21:24.801Z,-9.02
2022-12-18T08:23:54.473Z,-9.04
2022-12-18T08:26:23.009Z,-8.72
2022-12-18T08:28:51.922Z,-8.38
2022-12-18T08:31:20.016Z,-8.66
2022-12-18T08:33:53.184Z,-8.42
2022-12-18T08:36:21.315Z,-8.33
2022-12-18T08:38:48.471Z,-8.10
2022-12-18T08:41:18.249Z,-8.09
2022-12-18T08:44:04.334Z,-7.52
2022-12-18T08:46:41.554Z,-6.75
2022-12-18T08:49:11.924Z,-6.25
2022-12-18T08:51:40.036Z,-5.17
2022-12-18T08:54:08.265Z,-5.19
2022-12-18T08:56:35.527Z,-4.54
2022-12-18T08:59:02.785Z,-3.70
2022-12-18T09:01:30.076Z,-3.52
2022-12-18T09:03:57.885Z,-2.83
2022-12-18T09:06:25.103Z,-3.03
2022-12-18T09:08:52.320Z,-2.43
2022-12-18T09:11:26.363Z,-3.36
2022-12-18T09:13:55.246Z,-1.19
2022-12-18T09:16:30.307Z,-2.01
2022-12-18T09:19:00.712Z,-1.14
2022-12-18T09:21:34.272Z,-0.56
2022-12-18T09:24:08.619Z,-1.52
2022-12-18T09:26:36.742Z,-2.06
2022-12-18T09:29:04.990Z,-1.15
2022-12-18T09:31:32.188Z,-0.88
2022-12-18T09:33:59.332Z,-1.03
2022-12-18T09:36:26.553Z,-0.48
2022-12-18T09:38:54.217Z,-1.37
2022-12-18T09:41:45.449Z,-0.61
2022-12-18T09:44:25.988Z,-2.74
2022-12-18T09:47:14.048Z,-2.52
2022-12-18T09:49:52.648Z,-2.76
2022-12-18T09:52:35.121Z,-3.46
2022-12-18T09:55:23.186Z,-3.64
2022-12-18T09:58:02.270Z,-3.27
2022-12-18T10:00:29.593Z,-3.61
2022-12-18T10:03:12.567Z,-3.71
2022-12-18T10:06:06.871Z,-3.90
2022-12-18T10:09:04.894Z,-4.30
2022-12-18T10:11:53.327Z,-4.22
2022-12-18T10:14:34.045Z,-3.94
2022-12-18T10:17:25.719Z,-4.15
2022-12-18T10:20:20.286Z,-4.21
2022-12-18T10:23:16.532Z,-4.21
2022-12-18T10:25:53.730Z,-4.50
2022-12-18T10:28:22.778Z,-4.17
2022-12-18T10:30:50.111Z,-4.30
2022-12-18T10:33:22.508Z,-4.09
2022-12-18T10:35:52.477Z,-4.38
2022-12-18T10:38:20.161Z,-4.24
2022-12-18T10:41:26.785Z,-4.39
2022-12-18T10:44:18.723Z,-4.18
2022-12-18T10:46:50.323Z,-4.26
2022-12-18T10:49:29.820Z,-3.84
2022-12-18T10:52:19.751Z,-4.14
2022-12-18T10:54:59.508Z,-4.04
2022-12-18T10:57:41.338Z,-3.85
2022-12-18T11:00:29.583Z,-3.75
2022-12-18T11:02:58.129Z,-3.71
2022-12-18T11:05:37.664Z,-3.79
2022-12-18T11:08:05.089Z,-4.02
2022-12-18T11:10:40.082Z,-3.77
2022-12-18T11:13:27.335Z,-3.80
2022-12-18T11:15:54.990Z,-3.91
2022-12-18T11:18:29.867Z,-3.67
2022-12-18T11:21:13.561Z,-3.52
2022-12-18T11:23:52.697Z,-3.70
2022-12-18T11:26:20.990Z,-3.60
2022-12-18T11:28:53.188Z,-3.66
2022-12-18T11:31:22.141Z,-3.84
2022-12-18T11:34:29.202Z,-3.79
2022-12-18T11:37:02.036Z,-3.77
2022-12-18T11:39:37.408Z,-3.78
2022-12-18T11:42:47.041Z,-3.83
2022-12-18T11:45:14.189Z,-3.85
2022-12-18T11:48:04.976Z,-3.82
2022-12-18T11:50:47.350Z,-3.66
2022-12-18T11:53:14.779Z,-3.71
2022-12-18T11:55:57.284Z,-3.60
2022-12-18T11:58:50.996Z,-3.55
2022-12-18T12:01:45.679Z,-3.50
2022-12-18T12:05:19.325Z,-3.67
2022-12-18T12:08:12.105Z,-3.54
2022-12-18T12:11:10.077Z,-3.40
2022-12-18T12:13:45.260Z,-3.30
2022-12-18T12:16:19.062Z,-3.14
2022-12-18T12:19:03.976Z,-3.09
2022-12-18T12:22:09.764Z,-3.17
2022-12-18T12:25:32.637Z,-2.25
2022-12-18T12:28:30.690Z,-2.47
2022-12-18T12:31:33.425Z,-2.52
2022-12-18T12:34:21.110Z,-2.48
2022-12-18T12:37:07.801Z,-2.28
2022-12-18T12:39:43.289Z,-2.19
2022-12-18T12:43:13.595Z,-2.22
2022-12-18T12:46:06.090Z,-2.05
2022-12-18T12:48:54.420Z,-1.93
2022-12-18T12:51:27.141Z,-1.89
2022-12-18T12:53:58.255Z,-2.02
2022-12-18T12:56:40.833Z,-2.18
2022-12-18T12:59:35.763Z,-1.97
2022-12-18T13:02:43.182Z,-2.05
2022-12-18T13:05:25.538Z,-2.15
2022-12-18T13:08:02.131Z,-2.19
2022-12-18T13:10:44.612Z,-2.23
2022-12-18T13:13:17.299Z,-2.26
2022-12-18T13:16:09.002Z,-2.27
2022-12-18T13:18:37.197Z,-2.27
2022-12-18T13:21:29.789Z,-2.39
2022-12-18T13:24:14.957Z,-2.52
2022-12-18T13:26:42.264Z,-2.55
2022-12-18T13:29:09.845Z,-2.60
2022-12-18T13:31:40.749Z,-2.49
2022-12-18T13:34:26.849Z,-2.71
2022-12-18T13:37:00.406Z,-2.61
2022-12-18T13:39:36.042Z,-2.65
2022-12-18T13:42:07.075Z,-2.65
2022-12-18T13:44:42.340Z,-2.69
2022-12-18T13:47:48.676Z,-2.81
2022-12-18T13:50:32.501Z,-2.78
2022-12-18T13:53:06.086Z,-2.87
2022-12-18T13:55:33.541Z,-2.84
2022-12-18T13:58:06.681Z,-2.86
2022-12-18T14:00:34.867Z,-2.89
2022-12-18T14:03:02.590Z,-2.86
2022-12-18T14:05:33.903Z,-2.91
2022-12-18T14:08:08.995Z,-2.97
2022-12-18T14:10:49.510Z,-2.83
2022-12-18T14:13:43.030Z,-2.95
2022-12-18T14:16:17.597Z,-2.93
2022-12-18T14:19:02.679Z,-2.90
2022-12-18T14:21:40.062Z,-2.94
2022-12-18T14:24:19.483Z,-3.00
2022-12-18T14:26:50.585Z,-2.95
2022-12-18T14:29:28.855Z,-3.03
2022-12-18T14:32:16.596Z,-2.97
2022-12-18T14:34:50.842Z,-2.92
2022-12-18T14:37:23.418Z,-3.04
2022-12-18T14:39:59.257Z,-3.10
2022-12-18T14:42:30.392Z,-3.05
2022-12-18T14:45:42.382Z,-3.02
2022-12-18T14:48:22.888Z,-3.09
2022-12-18T14:51:11.794Z,-3.16
2022-12-18T14:53:59.011Z,-3.15
2022-12-18T14:56:43.561Z,-3.16
2022-12-18T14:59:24.735Z,-3.24
2022-12-18T15:02:21.178Z,-3.24
2022-12-18T15:05:00.100Z,-3.17
2022-12-18T15:07:27.539Z,-3.31
2022-12-18T15:10:09.857Z,-3.43
2022-12-18T15:13:03.415Z,-3.38
2022-12-18T15:15:40.503Z,-3.44
2022-12-18T15:18:11.408Z,-3.40
2022-12-18T15:20:56.079Z,-3.50
2022-12-18T15:23:31.572Z,-3.46
2022-12-18T15:26:15.377Z,-3.55
2022-12-18T15:28:56.278Z,-3.50
2022-12-18T15:31:29.075Z,-3.28
2022-12-18T15:33:56.125Z,-3.45
2022-12-18T15:36:26.285Z,-3.57
2022-12-18T15:39:04.601Z,-3.53
2022-12-18T15:41:36.769Z,-3.60
2022-12-18T15:44:22.346Z,-3.50
2022-12-18T15:46:49.683Z,-3.55
2022-12-18T15:49:16.896Z,-3.55
2022-12-18T15:51:44.433Z,-3.50
2022-12-18T15:54:17.078Z,-3.61
2022-12-18T15:57:02.991Z,-3.55
2022-12-18T15:59:30.186Z,-3.58
2022-12-18T16:01:57.951Z,-3.52
2022-12-18T16:04:26.257Z,-3.56
2022-12-18T16:09:40.835Z,-3.65
2022-12-18T16:12:17.802Z,-3.44
2022-12-18T16:14:46.006Z,-3.62
2022-12-18T16:17:15.149Z,-3.58
2022-12-18T16:19:43.867Z,-3.66
2022-12-18T16:22:24.854Z,-3.69
2022-12-18T16:24:54.192Z,-3.64
2022-12-18T16:27:23.197Z,-3.70
2022-12-18T16:29:51.175Z,-3.71
2022-12-18T16:32:22.091Z,-3.74
2022-12-18T16:34:50.538Z,-3.73
2022-12-18T16:37:18.056Z,-3.71
2022-12-18T16:39:45.725Z,-3.68
2022-12-18T16:42:21.048Z,-3.74
2022-12-18T16:44:50.124Z,-3.61
2022-12-18T16:47:17.909Z,-3.74
2022-12-18T16:49:46.183Z,-3.67
2022-12-18T16:52:14.236Z,-3.69
2022-12-18T16:54:41.526Z,-3.68
2022-12-18T16:57:14.068Z,-3.68
2022-12-18T16:59:41.371Z,-3.61
2022-12-18T17:02:23.956Z,-3.59
2022-12-18T17:04:56.283Z,-3.61
2022-12-18T17:07:25.490Z,-3.58
2022-12-18T17:09:53.985Z,-3.52
2022-12-18T17:12:21.619Z,-3.47
2022-12-18T17:14:49.203Z,-3.38
2022-12-18T17:17:21.472Z,-3.40
2022-12-18T17:19:49.942Z,-3.42
2022-12-18T17:22:17.316Z,-3.47
2022-12-18T17:24:44.514Z,-3.50
2022-12-18T17:27:11.676Z,-3.47
2022-12-18T17:29:43.965Z,-3.45
2022-12-18T17:32:13.940Z,-3.40
2022-12-18T17:34:41.330Z,-3.45
2022-12-18T17:37:08.996Z,-3.42
2022-12-18T17:39:36.300Z,-3.35
2022-12-18T17:42:03.933Z,-3.36
2022-12-18T17:44:34.272Z,-3.45
2022-12-18T17:47:01.789Z,-3.42
2022-12-18T17:49:29.358Z,-3.34
2022-12-18T17:51:56.537Z,-3.37
2022-12-18T17:54:23.751Z,-3.45
2022-12-18T17:56:51.007Z,-3.40
2022-12-18T17:59:18.213Z,-3.35
2022-12-18T18:01:45.894Z,-3.32
2022-12-18T18:04:14.706Z,-3.35
2022-12-18T18:06:42.066Z,-3.34
2022-12-18T18:09:15.282Z,-3.40
2022-12-18T18:12:04.411Z,-3.20
2022-12-18T18:14:32.956Z,-3.36
2022-12-18T18:17:04.217Z,-3.26
2022-12-18T18:19:33.558Z,-3.30
2022-12-18T18:22:01.629Z,-3.20
2022-12-18T18:24:31.192Z,-3.15
2022-12-18T18:27:01.380Z,-3.27
2022-12-18T18:29:32.552Z,-3.30
2022-12-18T18:31:59.858Z,-3.25
2022-12-18T18:34:30.319Z,-3.24
2022-12-18T18:36:57.599Z,-3.24
2022-12-18T18:39:25.449Z,-3.28
2022-12-18T18:41:53.174Z,-3.27
2022-12-18T18:44:24.863Z,-3.21
2022-12-18T18:46:55.719Z,-3.27
2022-12-18T18:49:26.922Z,-3.23
2022-12-18T18:51:55.791Z,-3.29
2022-12-18T18:54:23.614Z,-3.35
2022-12-18T18:59:38.298Z,-3.33
2022-12-18T19:02:05.586Z,-3.32
2022-12-18T19:04:34.086Z,-3.31
2022-12-18T19:07:01.869Z,-3.32
2022-12-18T19:09:29.412Z,-3.35
2022-12-18T19:12:16.464Z,-3.26
2022-12-18T19:14:43.857Z,-3.39
2022-12-18T19:17:11.084Z,-3.28
2022-12-18T19:19:39.277Z,-3.26
2022-12-18T19:22:06.657Z,-3.24
2022-12-18T19:24:33.960Z,-3.27
2022-12-18T19:27:01.441Z,-3.29
2022-12-18T19:29:28.666Z,-3.23
2022-12-18T19:31:55.927Z,-3.18
2022-12-18T19:34:23.188Z,-3.14
2022-12-18T19:36:53.891Z,-3.04
2022-12-18T19:39:25.666Z,-3.14
2022-12-18T19:41:53.014Z,-3.03
2022-12-18T19:44:21.592Z,-3.07
2022-12-18T19:46:51.831Z,-3.09
2022-12-18T19:49:21.968Z,-2.93
2022-12-18T19:51:50.175Z,-3.04
2022-12-18T19:54:18.072Z,-2.95
2022-12-18T19:56:46.106Z,-3.05
2022-12-18T19:59:14.482Z,-3.05
2022-12-18T20:01:42.100Z,-2.90
2022-12-18T20:04:09.572Z,-2.86
2022-12-18T20:06:51.569Z,-3.00
2022-12-18T20:09:19.884Z,-2.90
2022-12-18T20:11:48.198Z,-2.90
2022-12-18T20:14:22.338Z,-2.92
2022-12-18T20:16:52.355Z,-2.92
2022-12-18T20:19:20.745Z,-2.87
2022-12-18T20:21:48.113Z,-2.90
2022-12-18T20:24:15.317Z,-2.87
2022-12-18T20:26:42.546Z,-2.87
2022-12-18T20:29:09.789Z,-2.85
2022-12-18T20:31:37.266Z,-2.79
2022-12-18T20:34:06.107Z,-2.75
2022-12-18T20:36:35.251Z,-2.76
2022-12-18T20:39:06.531Z,-2.73
2022-12-18T20:41:38.317Z,-2.74
2022-12-18T20:44:23.004Z,-2.66
2022-12-18T20:46:56.222Z,-2.69
2022-12-18T20:49:26.608Z,-2.68
2022-12-18T20:51:56.813Z,-2.67
2022-12-18T20:54:27.242Z,-2.63
2022-12-18T20:56:55.120Z,-2.59
2022-12-18T20:59:23.243Z,-2.61
2022-12-18T21:01:52.037Z,-2.65
2022-12-18T21:04:19.601Z,-2.62
2022-12-18T21:06:54.255Z,-2.58
2022-12-18T21:09:33.724Z,-2.63
2022-12-18T21:12:26.223Z,-2.59
2022-12-18T21:14:53.757Z,-2.53
2022-12-18T21:17:20.921Z,-2.64
2022-12-18T21:19:48.128Z,-2.65
2022-12-18T21:22:16.457Z,-2.62
2022-12-18T21:24:43.893Z,-2.59
2022-12-18T21:27:13.011Z,-2.49
2022-12-18T21:29:45.803Z,-2.42
2022-12-18T21:32:13.984Z,-2.56
2022-12-18T21:34:46.238Z,-2.43
2022-12-18T21:37:15.692Z,-2.55
2022-12-18T21:39:42.953Z,-2.52
2022-12-18T21:42:30.590Z,-2.47
2022-12-18T21:44:57.912Z,-2.59
2022-12-18T21:47:25.149Z,-2.53
2022-12-18T21:49:53.179Z,-2.58
2022-12-18T21:52:29.823Z,-2.53
2022-12-18T21:55:08.442Z,-2.44
2022-12-18T21:57:39.564Z,-2.51
2022-12-18T22:00:18.727Z,-2.51
2022-12-18T22:03:00.490Z,-2.50
2022-12-18T22:05:36.213Z,-2.49
2022-12-18T22:08:04.413Z,-2.45
2022-12-18T22:10:32.098Z,-2.50
2022-12-18T22:12:59.307Z,-2.40
2022-12-18T22:15:26.542Z,-2.50
2022-12-18T22:17:59.544Z,-2.50
2022-12-18T22:20:29.962Z,-2.45
2022-12-18T22:22:58.659Z,-2.44
2022-12-18T22:25:27.250Z,-2.43
2022-12-18T22:28:13.052Z,-2.45
2022-12-18T22:30:40.347Z,-2.48
2022-12-18T22:33:07.569Z,-2.45
2022-12-18T22:35:34.992Z,-2.31
2022-12-18T22:38:03.279Z,-2.36
2022-12-18T22:40:30.642Z,-2.34
2022-12-18T22:42:58.118Z,-2.28
2022-12-18T22:45:26.798Z,-2.40
2022-12-18T22:47:54.153Z,-2.29
2022-12-18T22:50:21.623Z,-2.33
2022-12-18T22:52:48.862Z,-2.31
2022-12-18T22:55:16.037Z,-2.28
2022-12-18T22:57:48.571Z,-2.27
2022-12-18T23:00:16.836Z,-2.28
2022-12-18T23:02:48.074Z,-2.30
2022-12-18T23:05:15.564Z,-2.24
2022-12-18T23:07:42.714Z,-2.19
2022-12-18T23:10:10.109Z,-2.17
2022-12-18T23:12:37.595Z,-2.14
2022-12-18T23:15:05.988Z,-2.07
2022-12-18T23:17:33.152Z,-2.12
2022-12-18T23:20:00.306Z,-1.93
2022-12-18T23:22:30.409Z,-2.04
2022-12-18T23:24:57.660Z,-2.11
2022-12-18T23:27:24.848Z,-2.10
2022-12-18T23:29:51.993Z,-1.89
2022-12-18T23:32:20.392Z,-1.88
2022-12-18T23:34:47.600Z,-1.87
2022-12-18T23:37:35.281Z,-1.97
2022-12-18T23:40:02.025Z,-1.82
2022-12-18T23:42:29.220Z,-1.74
2022-12-18T23:44:56.399Z,-1.87
2022-12-18T23:47:24.779Z,-1.80
2022-12-18T23:49:51.914Z,-1.83
2022-12-18T23:52:19.457Z,-1.93
2022-12-18T23:54:46.712Z,-1.96
2022-12-18T23:57:13.962Z,-1.88
2022-12-18T23:59:41.278Z,-1.81
